Time;durP1;ratioP1;P1;durP2;ratioP2;P2;SDS_P1;SDS_P2;PMS_P1;PMS_P2;Temp;Humidity;BMP_temperature;BMP_pressure;BME280_temperature;BME280_humidity;BME280_pressure;Samples;Min_cycle;Max_cycle;Signal;HPM_P1;HPM_P2
2023/12/31 00:02:04;;;;;;;1.77;0.87;;;9.20;99.90;;;;;;5007961;28;20559;-47
2023/12/31 00:04:34;;;;;;;1.90;0.90;;;9.20;99.90;;;;;;5008961;28;20921;-48
2023/12/31 00:07:02;;;;;;;2.00;0.90;;;9.20;99.90;;;;;;5004967;28;20665;-46
2023/12/31 00:09:30;;;;;;;1.57;0.80;;;9.20;99.90;;;;;;5007469;28;20891;-49
2023/12/31 00:11:58;;;;;;;1.53;0.80;;;9.20;99.90;;;;;;5008077;28;20496;-48
2023/12/31 00:14:26;;;;;;;1.60;1.00;;;9.20;99.90;;;;;;5004824;28;20446;-46
2023/12/31 00:16:55;;;;;;;3.70;0.80;;;9.20;99.90;;;;;;5007525;28;20472;-49
2023/12/31 00:19:25;;;;;;;1.47;0.80;;;9.20;99.90;;;;;;5008111;28;20432;-47
2023/12/31 00:21:54;;;;;;;1.70;1.00;;;9.30;99.90;;;;;;5005019;28;20516;-49
2023/12/31 00:24:22;;;;;;;1.80;1.30;;;9.20;99.90;;;;;;5006861;28;20452;-46
2023/12/31 00:26:50;;;;;;;1.60;1.13;;;9.20;99.90;;;;;;5008353;28;20614;-46
2023/12/31 00:29:19;;;;;;;1.27;0.70;;;9.20;99.90;;;;;;5005034;28;20456;-47
2023/12/31 00:31:48;;;;;;;1.50;0.80;;;9.20;99.90;;;;;;5023190;28;20560;-47
2023/12/31 00:34:17;;;;;;;1.40;0.80;;;9.20;99.90;;;;;;5008310;28;20961;-47
2023/12/31 00:36:48;;;;;;;2.20;0.97;;;9.20;99.90;;;;;;5008094;28;20475;-48
2023/12/31 00:39:16;;;;;;;1.23;0.70;;;9.20;99.90;;;;;;5007903;28;20522;-47
2023/12/31 00:41:44;;;;;;;1.73;0.97;;;9.20;99.90;;;;;;5010475;28;20480;-47
2023/12/31 00:44:12;;;;;;;2.37;0.93;;;9.20;99.90;;;;;;5006943;28;20444;-49
2023/12/31 00:46:41;;;;;;;1.97;0.90;;;9.20;99.90;;;;;;5010525;28;20476;-48
2023/12/31 00:49:09;;;;;;;1.93;1.20;;;9.20;99.90;;;;;;5012309;28;20433;-48
2023/12/31 00:51:38;;;;;;;1.60;0.83;;;9.20;99.90;;;;;;5023783;28;20465;-48
2023/12/31 00:54:07;;;;;;;1.57;0.80;;;9.20;99.90;;;;;;5008887;28;20445;-48
2023/12/31 00:56:35;;;;;;;1.50;0.80;;;9.20;99.90;;;;;;5008483;28;20473;-47
2023/12/31 00:59:04;;;;;;;2.37;1.10;;;9.20;99.90;;;;;;5008432;28;20436;-47
2023/12/31 01:01:35;;;;;;;1.30;0.83;;;9.20;99.90;;;;;;5011040;28;20480;-47
2023/12/31 01:04:03;;;;;;;1.60;0.80;;;9.20;99.90;;;;;;5007258;28;20437;-47
2023/12/31 01:06:31;;;;;;;1.40;0.70;;;9.20;99.90;;;;;;5006218;28;20480;-48
2023/12/31 01:08:59;;;;;;;2.30;1.67;;;9.20;99.90;;;;;;5012247;28;20769;-48
2023/12/31 01:11:28;;;;;;;1.33;0.63;;;9.20;99.90;;;;;;5019284;28;20472;-49
2023/12/31 01:13:56;;;;;;;1.27;0.80;;;9.20;99.90;;;;;;5015853;28;20449;-47
2023/12/31 01:16:24;;;;;;;1.30;0.70;;;9.20;99.90;;;;;;5009814;28;20716;-47
2023/12/31 01:18:52;;;;;;;2.77;1.10;;;9.20;99.90;;;;;;5009992;28;20424;-49
2023/12/31 01:21:21;;;;;;;1.70;1.10;;;9.20;99.90;;;;;;5009297;28;20464;-49
2023/12/31 01:23:49;;;;;;;2.67;1.10;;;9.20;99.90;;;;;;5005126;28;20473;-51
2023/12/31 01:26:17;;;;;;;1.43;0.70;;;9.20;99.90;;;;;;5010788;28;20484;-47
2023/12/31 01:28:47;;;;;;;1.83;0.70;;;9.20;99.90;;;;;;5008066;28;20561;-48
2023/12/31 01:31:20;;;;;;;1.50;0.50;;;9.20;99.90;;;;;;5009992;28;20500;-46
2023/12/31 01:33:48;;;;;;;1.87;0.60;;;9.20;99.90;;;;;;5011211;28;20822;-47
2023/12/31 01:36:16;;;;;;;2.10;0.70;;;9.20;99.90;;;;;;5004002;28;20560;-46
2023/12/31 01:38:45;;;;;;;1.83;0.90;;;9.20;99.90;;;;;;5026509;28;20796;-49
2023/12/31 01:41:13;;;;;;;2.40;0.90;;;9.20;99.90;;;;;;5010556;28;20487;-47
2023/12/31 01:43:41;;;;;;;2.60;1.13;;;9.20;99.90;;;;;;5006434;28;20512;-48
2023/12/31 01:46:11;;;;;;;1.20;0.60;;;9.20;99.90;;;;;;5011111;28;20445;-46
2023/12/31 01:48:41;;;;;;;1.57;0.90;;;9.20;99.90;;;;;;5008337;28;20445;-50
2023/12/31 01:51:09;;;;;;;1.20;0.60;;;9.20;99.90;;;;;;5007045;28;21021;-49
2023/12/31 01:53:38;;;;;;;1.43;1.10;;;9.20;99.90;;;;;;5007751;28;20499;-48
2023/12/31 01:56:06;;;;;;;3.10;0.93;;;9.20;99.90;;;;;;5009485;28;20429;-47
2023/12/31 01:58:35;;;;;;;1.50;1.10;;;9.20;99.90;;;;;;5004415;28;20503;-49
2023/12/31 02:01:05;;;;;;;2.27;1.23;;;9.20;99.90;;;;;;5028310;28;20871;-46
2023/12/31 02:03:35;;;;;;;2.13;1.00;;;9.20;99.90;;;;;;5009335;28;20440;-46
2023/12/31 02:06:03;;;;;;;1.63;0.90;;;9.20;99.90;;;;;;5010802;28;20929;-49
2023/12/31 02:08:31;;;;;;;1.80;1.00;;;9.20;99.90;;;;;;5008271;28;20445;-48
2023/12/31 02:10:59;;;;;;;1.97;1.20;;;9.10;99.90;;;;;;5009715;28;20520;-47
2023/12/31 02:13:27;;;;;;;1.63;1.00;;;9.20;99.90;;;;;;5005366;28;20447;-48
2023/12/31 02:15:56;;;;;;;1.57;0.83;;;9.10;99.90;;;;;;5009961;28;20874;-49
2023/12/31 02:18:25;;;;;;;2.23;1.00;;;9.10;99.90;;;;;;5010409;28;20437;-51
2023/12/31 02:20:55;;;;;;;1.47;0.97;;;9.20;99.90;;;;;;5010259;28;21205;-48
2023/12/31 02:23:23;;;;;;;1.70;0.90;;;9.10;99.90;;;;;;5005299;28;20488;-47
2023/12/31 02:26:04;;;;;;;1.60;1.00;;;9.10;99.90;;;;;;5009291;28;20429;-47
2023/12/31 02:28:32;;;;;;;1.43;1.10;;;9.10;99.90;;;;;;5007710;28;20519;-47
2023/12/31 02:31:01;;;;;;;1.60;0.73;;;9.10;99.90;;;;;;5009498;28;20662;-48
2023/12/31 02:33:29;;;;;;;1.70;1.00;;;9.10;99.90;;;;;;5025462;28;20776;-47
2023/12/31 02:35:57;;;;;;;2.00;1.27;;;9.10;99.90;;;;;;5009622;28;20433;-49
2023/12/31 02:38:26;;;;;;;1.50;1.20;;;9.10;99.90;;;;;;5006141;28;20816;-49
2023/12/31 02:40:55;;;;;;;2.00;1.53;;;9.10;99.90;;;;;;5009225;28;20457;-49
2023/12/31 02:43:24;;;;;;;1.77;1.27;;;9.10;99.90;;;;;;5006218;28;20513;-47
2023/12/31 02:45:53;;;;;;;2.67;1.47;;;9.10;99.90;;;;;;5008443;28;21100;-50
2023/12/31 02:48:22;;;;;;;1.90;1.03;;;9.10;99.90;;;;;;5008896;28;20460;-48
2023/12/31 02:50:50;;;;;;;2.10;1.10;;;9.10;99.90;;;;;;5008935;28;20449;-48
2023/12/31 02:53:18;;;;;;;1.87;0.97;;;9.10;99.90;;;;;;5007076;28;20472;-47
2023/12/31 02:55:46;;;;;;;1.37;0.87;;;9.10;99.90;;;;;;5008496;28;20500;-47
2023/12/31 02:58:16;;;;;;;1.70;1.17;;;9.10;99.90;;;;;;5004880;28;20583;-47
2023/12/31 03:00:44;;;;;;;1.63;0.97;;;9.10;99.90;;;;;;5008251;28;20465;-49
2023/12/31 03:03:12;;;;;;;1.77;0.73;;;9.10;99.90;;;;;;5009406;28;20472;-47
2023/12/31 03:05:40;;;;;;;1.50;0.90;;;9.10;99.90;;;;;;5006808;28;20912;-48
2023/12/31 03:08:10;;;;;;;2.27;1.30;;;9.10;99.90;;;;;;5009150;28;20453;-47
2023/12/31 03:10:38;;;;;;;2.10;1.20;;;9.10;99.90;;;;;;5005790;28;20460;-48
2023/12/31 03:13:06;;;;;;;2.67;1.00;;;9.10;99.90;;;;;;5005114;28;20796;-48
2023/12/31 03:15:35;;;;;;;1.30;0.90;;;9.10;99.90;;;;;;5009681;28;20436;-47
2023/12/31 03:18:05;;;;;;;2.13;1.13;;;9.10;99.90;;;;;;5009229;28;21053;-49
2023/12/31 03:20:33;;;;;;;2.17;1.23;;;9.10;99.90;;;;;;5008274;28;20464;-48
2023/12/31 03:23:01;;;;;;;2.00;1.10;;;9.10;99.90;;;;;;5000081;28;20881;-46
2023/12/31 03:25:30;;;;;;;1.60;1.10;;;9.10;99.90;;;;;;5009015;28;20571;-48
2023/12/31 03:27:58;;;;;;;1.73;1.20;;;9.10;99.90;;;;;;5006606;28;20465;-48
2023/12/31 03:30:26;;;;;;;2.40;1.43;;;9.10;99.90;;;;;;5009036;28;20527;-48
2023/12/31 03:32:55;;;;;;;2.03;1.27;;;9.10;99.90;;;;;;5008506;28;20548;-49
2023/12/31 03:35:23;;;;;;;2.03;1.20;;;9.10;99.90;;;;;;5007847;28;20440;-49
2023/12/31 03:37:51;;;;;;;2.70;1.10;;;9.10;99.90;;;;;;5006940;28;20532;-47
2023/12/31 03:40:21;;;;;;;2.07;1.20;;;9.10;99.90;;;;;;5008885;28;20515;-47
2023/12/31 03:42:49;;;;;;;1.80;1.30;;;9.10;99.90;;;;;;5007163;28;20476;-47
2023/12/31 03:45:17;;;;;;;1.60;1.20;;;9.10;99.90;;;;;;5006735;28;20429;-47
2023/12/31 03:47:45;;;;;;;2.10;1.10;;;9.10;99.90;;;;;;5008357;28;20587;-49
2023/12/31 03:50:16;;;;;;;2.73;1.60;;;9.10;99.90;;;;;;5008819;28;20472;-48
2023/12/31 03:52:44;;;;;;;1.30;1.10;;;9.10;99.90;;;;;;5004914;28;20469;-47
2023/12/31 03:55:13;;;;;;;1.77;1.23;;;9.10;99.90;;;;;;5008975;28;20469;-48
2023/12/31 03:57:41;;;;;;;2.33;1.33;;;9.10;99.90;;;;;;5008553;28;20464;-47
2023/12/31 04:00:10;;;;;;;1.40;1.10;;;9.10;99.90;;;;;;5005123;28;20482;-46
2023/12/31 04:02:39;;;;;;;2.20;1.50;;;9.10;99.90;;;;;;5015726;28;20496;-49
2023/12/31 04:05:08;;;;;;;2.20;1.40;;;9.10;99.90;;;;;;5024061;28;20425;-47
2023/12/31 04:07:39;;;;;;;1.70;1.07;;;9.10;99.90;;;;;;5002113;28;20843;-48
2023/12/31 04:10:07;;;;;;;2.63;1.40;;;9.10;99.90;;;;;;5007344;28;20459;-50
2023/12/31 04:12:35;;;;;;;2.53;1.53;;;9.10;99.90;;;;;;5003739;28;20457;-49
2023/12/31 04:15:07;;;;;;;1.60;1.33;;;9.10;99.90;;;;;;5003180;28;20528;-47
2023/12/31 04:17:36;;;;;;;1.70;1.30;;;9.10;99.90;;;;;;5004196;28;20469;-47
2023/12/31 04:20:05;;;;;;;2.07;1.30;;;9.10;99.90;;;;;;5008584;28;20792;-47
2023/12/31 04:22:33;;;;;;;2.33;1.63;;;9.10;99.90;;;;;;5004680;28;20922;-46
2023/12/31 04:25:04;;;;;;;2.10;1.27;;;9.00;99.90;;;;;;5008334;28;20496;-48
2023/12/31 04:27:35;;;;;;;2.27;1.57;;;9.00;99.90;;;;;;5006280;28;20807;-46
2023/12/31 04:30:04;;;;;;;3.93;1.90;;;9.00;99.90;;;;;;5003954;28;20465;-47
2023/12/31 04:32:32;;;;;;;4.40;1.77;;;9.00;99.90;;;;;;5007665;28;20552;-46
2023/12/31 04:35:00;;;;;;;1.83;1.43;;;9.00;99.90;;;;;;5008475;28;20865;-47
2023/12/31 04:37:28;;;;;;;2.60;1.70;;;9.00;99.90;;;;;;5004286;28;20488;-47
2023/12/31 04:39:56;;;;;;;3.40;1.50;;;9.00;99.90;;;;;;5007924;28;20477;-48
2023/12/31 04:42:26;;;;;;;2.13;1.20;;;9.00;99.90;;;;;;5008030;28;20556;-52
2023/12/31 04:44:54;;;;;;;2.97;1.30;;;9.00;99.90;;;;;;5005243;28;20437;-47
2023/12/31 04:47:22;;;;;;;2.53;1.60;;;9.00;99.90;;;;;;5010305;28;20461;-47
2023/12/31 04:49:51;;;;;;;2.53;1.87;;;9.00;99.90;;;;;;5023398;28;20535;-47
2023/12/31 04:52:19;;;;;;;2.00;1.30;;;9.00;99.90;;;;;;5005525;28;20461;-47
2023/12/31 04:54:47;;;;;;;3.03;1.67;;;9.00;99.90;;;;;;5008183;28;20468;-48
2023/12/31 04:57:15;;;;;;;3.13;1.90;;;9.00;99.90;;;;;;5007786;28;20985;-47
2023/12/31 04:59:44;;;;;;;2.67;1.30;;;9.00;99.90;;;;;;5004945;28;20530;-47
2023/12/31 05:02:14;;;;;;;2.50;1.30;;;9.00;99.90;;;;;;5007870;28;20468;-49
2023/12/31 05:04:42;;;;;;;2.33;1.90;;;9.00;99.90;;;;;;5006754;28;20465;-48
2023/12/31 05:07:11;;;;;;;2.07;1.87;;;9.00;99.90;;;;;;5004670;28;20473;-49
2023/12/31 05:09:40;;;;;;;2.53;1.63;;;9.00;99.90;;;;;;5003634;28;20870;-52
2023/12/31 05:12:08;;;;;;;3.57;2.07;;;9.00;99.90;;;;;;5005986;28;20465;-48
2023/12/31 05:14:36;;;;;;;2.50;1.63;;;9.00;99.90;;;;;;4999411;28;20441;-47
2023/12/31 05:17:05;;;;;;;2.43;1.63;;;9.00;99.90;;;;;;4999686;28;20465;-47
2023/12/31 05:19:34;;;;;;;2.70;1.70;;;9.00;99.90;;;;;;5005897;28;20507;-46
2023/12/31 05:22:02;;;;;;;2.57;1.60;;;9.00;99.90;;;;;;5003301;28;20523;-47
2023/12/31 05:24:30;;;;;;;3.43;1.73;;;9.00;99.90;;;;;;5007987;28;21117;-47
2023/12/31 05:26:58;;;;;;;2.57;1.37;;;9.00;99.90;;;;;;5009692;28;21048;-47
2023/12/31 05:29:26;;;;;;;2.47;1.57;;;9.00;99.90;;;;;;5007746;28;20453;-46
2023/12/31 05:31:54;;;;;;;3.47;2.30;;;9.00;99.90;;;;;;5010453;28;20900;-49
2023/12/31 05:34:23;;;;;;;2.27;1.67;;;9.00;99.90;;;;;;5010903;28;20515;-48
2023/12/31 05:36:51;;;;;;;2.73;1.53;;;9.00;99.90;;;;;;5009471;28;20495;-46
2023/12/31 05:39:20;;;;;;;3.10;1.43;;;9.00;99.90;;;;;;5008270;28;20437;-48
2023/12/31 05:41:48;;;;;;;3.50;1.80;;;9.00;99.90;;;;;;5010497;28;20527;-47
2023/12/31 05:44:16;;;;;;;2.60;1.67;;;9.00;99.90;;;;;;5007400;28;20457;-46
2023/12/31 05:46:44;;;;;;;2.20;1.67;;;9.00;99.90;;;;;;5010646;28;20464;-49
2023/12/31 05:49:12;;;;;;;2.10;1.50;;;9.00;99.90;;;;;;5011080;28;20441;-46
2023/12/31 05:51:42;;;;;;;1.87;1.50;;;9.00;99.90;;;;;;5010955;28;21169;-47
2023/12/31 05:54:10;;;;;;;3.27;2.10;;;9.00;99.90;;;;;;5006708;28;20529;-51
2023/12/31 05:56:38;;;;;;;1.60;1.33;;;9.00;99.90;;;;;;5010414;28;20504;-47
2023/12/31 05:59:06;;;;;;;2.13;1.40;;;9.00;99.90;;;;;;5007180;28;20437;-47
2023/12/31 06:01:34;;;;;;;1.90;1.30;;;9.00;99.90;;;;;;5010542;28;20998;-47
2023/12/31 06:04:02;;;;;;;2.30;1.70;;;9.00;99.90;;;;;;5010537;28;20469;-47
2023/12/31 06:06:35;;;;;;;2.50;1.83;;;9.00;99.90;;;;;;5010182;28;20787;-47
2023/12/31 06:09:04;;;;;;;2.80;1.93;;;9.00;99.90;;;;;;5006752;28;20506;-48
2023/12/31 06:11:32;;;;;;;4.40;1.87;;;9.00;99.90;;;;;;5009655;28;20850;-47
2023/12/31 06:14:02;;;;;;;2.67;1.50;;;9.00;99.90;;;;;;5006308;28;20445;-47
2023/12/31 06:16:31;;;;;;;3.87;1.63;;;9.00;99.90;;;;;;5009637;28;20918;-49
2023/12/31 06:18:59;;;;;;;2.60;1.67;;;9.00;99.90;;;;;;5009840;28;20536;-48
2023/12/31 06:21:27;;;;;;;2.30;1.50;;;9.00;99.90;;;;;;5007549;28;20495;-50
2023/12/31 06:23:55;;;;;;;2.53;1.60;;;9.00;99.90;;;;;;5022392;28;20651;-50
2023/12/31 06:26:24;;;;;;;2.70;1.97;;;9.00;99.90;;;;;;5009654;28;20889;-47
2023/12/31 06:28:53;;;;;;;2.27;1.60;;;9.00;99.90;;;;;;5007039;28;20951;-47
2023/12/31 06:31:21;;;;;;;3.07;1.83;;;9.00;99.90;;;;;;5009812;28;20464;-48
2023/12/31 06:33:50;;;;;;;3.27;1.63;;;8.90;99.90;;;;;;5009850;28;20444;-46
2023/12/31 06:36:18;;;;;;;2.63;1.73;;;9.00;99.90;;;;;;5009495;28;20461;-49
2023/12/31 06:38:46;;;;;;;2.70;1.83;;;9.00;99.90;;;;;;5008375;28;20476;-47
2023/12/31 06:41:14;;;;;;;2.57;2.20;;;9.00;99.90;;;;;;5008042;28;20467;-48
2023/12/31 06:43:44;;;;;;;2.20;1.80;;;9.00;99.90;;;;;;5006583;28;20513;-45
2023/12/31 06:46:12;;;;;;;2.43;1.50;;;8.90;99.90;;;;;;5009660;28;20433;-47
2023/12/31 06:48:41;;;;;;;3.27;1.70;;;9.00;99.90;;;;;;5009567;28;20447;-47
2023/12/31 06:51:09;;;;;;;2.97;1.60;;;8.90;99.90;;;;;;5014167;28;21152;-49
2023/12/31 06:53:38;;;;;;;2.60;2.10;;;8.90;99.90;;;;;;5003676;28;20467;-48
2023/12/31 06:56:07;;;;;;;2.23;2.03;;;9.00;99.90;;;;;;5008708;28;20437;-47
2023/12/31 06:58:37;;;;;;;3.37;1.73;;;8.90;99.90;;;;;;5002072;28;20452;-48
2023/12/31 07:01:06;;;;;;;3.10;2.20;;;8.90;99.90;;;;;;5008728;28;20986;-47
2023/12/31 07:03:35;;;;;;;2.50;1.73;;;8.90;99.90;;;;;;5009076;28;20447;-47
2023/12/31 07:06:03;;;;;;;3.07;2.17;;;8.90;99.90;;;;;;5006195;28;20764;-46
2023/12/31 07:08:32;;;;;;;3.00;1.73;;;8.90;99.90;;;;;;5009095;28;20433;-47
2023/12/31 07:11:00;;;;;;;3.00;1.80;;;8.90;99.90;;;;;;5007948;28;20461;-45
2023/12/31 07:13:28;;;;;;;2.40;1.80;;;8.90;99.90;;;;;;5005491;28;20453;-50
2023/12/31 07:15:58;;;;;;;3.10;2.60;;;8.90;99.90;;;;;;5008674;28;20445;-47
2023/12/31 07:18:27;;;;;;;3.10;2.00;;;8.90;99.90;;;;;;5009393;28;20517;-48
2023/12/31 07:20:56;;;;;;;2.03;1.70;;;8.90;99.90;;;;;;5003595;28;20479;-47
2023/12/31 07:23:24;;;;;;;2.20;1.50;;;8.90;99.90;;;;;;5005923;28;20675;-49
2023/12/31 07:25:52;;;;;;;2.13;1.73;;;8.90;99.90;;;;;;5007045;28;21035;-48
2023/12/31 07:28:20;;;;;;;3.53;2.03;;;8.90;99.90;;;;;;5004607;28;20477;-46
2023/12/31 07:30:49;;;;;;;3.20;2.13;;;8.90;99.90;;;;;;5008998;28;21021;-46
2023/12/31 07:33:17;;;;;;;2.17;1.90;;;8.90;99.90;;;;;;5008221;28;20526;-48
2023/12/31 07:35:47;;;;;;;3.10;2.60;;;8.90;99.90;;;;;;5021662;28;20544;-46
2023/12/31 07:38:15;;;;;;;2.97;2.20;;;8.90;99.90;;;;;;5013361;28;20851;-46
2023/12/31 07:40:44;;;;;;;2.70;1.93;;;8.90;99.90;;;;;;5008619;28;20465;-47
2023/12/31 07:43:12;;;;;;;3.80;2.57;;;8.90;99.90;;;;;;5006200;28;20563;-46
2023/12/31 07:45:40;;;;;;;2.10;1.87;;;8.90;99.90;;;;;;5007461;28;20461;-47
2023/12/31 07:48:11;;;;;;;2.83;2.10;;;8.90;99.90;;;;;;5005888;28;20469;-46
2023/12/31 07:50:40;;;;;;;2.47;2.07;;;8.90;99.90;;;;;;5005619;28;20502;-46
2023/12/31 07:53:09;;;;;;;2.10;1.73;;;8.90;99.90;;;;;;5004148;28;20473;-45
2023/12/31 07:55:38;;;;;;;2.40;1.90;;;8.90;99.90;;;;;;5007572;28;20422;-45
2023/12/31 07:58:06;;;;;;;2.27;1.67;;;8.90;99.90;;;;;;5005237;28;20467;-45
2023/12/31 08:00:34;;;;;;;2.23;1.80;;;8.90;99.90;;;;;;5008251;28;20459;-45
2023/12/31 08:03:03;;;;;;;3.57;2.23;;;8.90;99.90;;;;;;5007637;28;20465;-45
2023/12/31 08:05:33;;;;;;;3.20;1.70;;;8.90;99.90;;;;;;5008647;28;20483;-45
2023/12/31 08:08:01;;;;;;;3.00;2.03;;;8.90;99.90;;;;;;5004168;28;20975;-45
2023/12/31 08:10:31;;;;;;;3.57;2.20;;;8.90;99.90;;;;;;5008096;28;20467;-45
2023/12/31 08:12:59;;;;;;;3.43;2.10;;;8.90;99.90;;;;;;5005292;28;20468;-45
2023/12/31 08:15:28;;;;;;;2.50;1.90;;;8.90;99.90;;;;;;5006855;28;20424;-45
2023/12/31 08:17:56;;;;;;;2.20;1.80;;;8.90;99.90;;;;;;5008332;28;20530;-45
2023/12/31 08:20:24;;;;;;;3.03;2.10;;;8.90;99.90;;;;;;5008175;28;20567;-45
2023/12/31 08:22:53;;;;;;;2.20;1.80;;;8.90;99.90;;;;;;5003468;28;20481;-44
2023/12/31 08:25:21;;;;;;;2.80;2.50;;;8.90;99.90;;;;;;5007613;28;20496;-47
2023/12/31 08:27:50;;;;;;;2.57;2.20;;;8.90;99.90;;;;;;5022651;28;20982;-46
2023/12/31 08:30:18;;;;;;;2.27;1.50;;;8.90;99.90;;;;;;5021365;28;20452;-46
2023/12/31 08:32:47;;;;;;;2.37;1.53;;;8.90;99.90;;;;;;5008071;28;20523;-45
2023/12/31 08:35:15;;;;;;;3.23;2.23;;;8.90;99.90;;;;;;5008306;28;20980;-45
2023/12/31 08:37:44;;;;;;;2.90;1.90;;;8.90;99.90;;;;;;5003519;28;20491;-46
2023/12/31 08:40:12;;;;;;;3.10;2.00;;;8.90;99.90;;;;;;5005359;28;20531;-45
2023/12/31 08:42:41;;;;;;;2.53;1.80;;;8.90;99.90;;;;;;5007903;28;20472;-45
2023/12/31 08:45:11;;;;;;;2.42;2.20;;;8.90;99.90;;;;;;5004762;28;20555;-45
2023/12/31 08:47:40;;;;;;;2.77;1.33;;;8.90;99.90;;;;;;5007947;28;20221;-47
2023/12/31 08:50:09;;;;;;;2.00;1.50;;;8.90;99.90;;;;;;5008140;28;20539;-45
2023/12/31 08:52:43;;;;;;;2.20;1.50;;;8.90;99.90;;;;;;5001654;28;20477;-45
2023/12/31 08:55:11;;;;;;;2.20;1.97;;;8.90;99.90;;;;;;5008522;28;20421;-44
2023/12/31 08:57:43;;;;;;;2.30;1.63;;;8.90;99.90;;;;;;5008101;28;20469;-45
2023/12/31 09:00:16;;;;;;;2.27;1.60;;;8.90;99.90;;;;;;5006095;28;20461;-45
2023/12/31 09:02:44;;;;;;;3.20;2.47;;;8.90;99.90;;;;;;5011363;28;21070;-45
2023/12/31 09:05:12;;;;;;;2.00;1.80;;;8.90;99.90;;;;;;5008953;28;20904;-45
2023/12/31 09:07:41;;;;;;;2.60;1.77;;;8.90;99.90;;;;;;5006266;28;20545;-45
2023/12/31 09:10:10;;;;;;;2.03;1.80;;;8.90;99.90;;;;;;5009528;28;20889;-45
2023/12/31 09:12:38;;;;;;;2.70;2.00;;;8.90;99.90;;;;;;5005201;28;20492;-48
2023/12/31 09:15:07;;;;;;;2.40;1.87;;;8.90;99.90;;;;;;5006559;28;20448;-48
2023/12/31 09:17:37;;;;;;;2.07;1.63;;;8.90;99.90;;;;;;5006598;28;21076;-49
2023/12/31 09:20:08;;;;;;;2.13;1.50;;;8.90;99.90;;;;;;5010098;28;20459;-48
2023/12/31 09:22:36;;;;;;;2.23;1.50;;;8.90;99.90;;;;;;5003425;28;20526;-47
2023/12/31 09:25:06;;;;;;;2.17;1.53;;;8.90;99.90;;;;;;5007508;28;20445;-47
2023/12/31 09:27:35;;;;;;;2.90;2.07;;;8.90;99.90;;;;;;5011347;28;20464;-48
2023/12/31 09:30:04;;;;;;;2.30;1.40;;;8.90;99.90;;;;;;5008413;28;20465;-46
2023/12/31 09:32:32;;;;;;;2.03;1.40;;;8.90;99.90;;;;;;5010239;28;20474;-46
2023/12/31 09:35:02;;;;;;;3.13;1.80;;;8.90;99.90;;;;;;5005025;28;20436;-49
2023/12/31 09:37:30;;;;;;;2.80;2.00;;;9.00;99.90;;;;;;5007999;28;20466;-46
2023/12/31 09:39:59;;;;;;;3.33;2.00;;;9.00;99.90;;;;;;5011071;28;20217;-48
2023/12/31 09:42:32;;;;;;;2.23;1.63;;;9.10;99.90;;;;;;5012058;28;20515;-46
2023/12/31 09:45:04;;;;;;;2.67;2.00;;;9.10;99.90;;;;;;5007112;28;20452;-47
2023/12/31 09:47:33;;;;;;;3.60;2.00;;;9.10;99.90;;;;;;5010144;28;20525;-45
2023/12/31 09:50:03;;;;;;;3.03;2.03;;;9.00;99.90;;;;;;5010479;28;20495;-46
2023/12/31 09:52:33;;;;;;;3.00;2.10;;;9.00;99.90;;;;;;5006989;28;20519;-48
2023/12/31 09:55:02;;;;;;;3.60;2.30;;;9.00;99.90;;;;;;5010678;28;20420;-45
2023/12/31 09:57:33;;;;;;;2.80;2.37;;;9.00;99.90;;;;;;5009945;28;20562;-48
2023/12/31 10:00:04;;;;;;;3.23;1.40;;;9.00;99.90;;;;;;5010240;28;20464;-47
2023/12/31 10:02:37;;;;;;;2.33;1.63;;;9.00;99.90;;;;;;5005228;28;20648;-48
2023/12/31 10:05:09;;;;;;;2.70;2.00;;;9.00;99.90;;;;;;5011163;28;20830;-45
2023/12/31 10:07:37;;;;;;;2.57;1.90;;;9.00;99.90;;;;;;5004418;28;20461;-45
2023/12/31 10:10:11;;;;;;;2.07;1.53;;;9.00;99.90;;;;;;5009896;28;20540;-45
2023/12/31 10:12:39;;;;;;;4.70;1.77;;;8.90;99.90;;;;;;5003474;28;20462;-45
2023/12/31 10:15:08;;;;;;;2.60;1.87;;;9.00;99.90;;;;;;5006411;28;20954;-45
2023/12/31 10:17:37;;;;;;;2.30;1.73;;;9.00;99.90;;;;;;5009302;28;20464;-48
2023/12/31 10:20:08;;;;;;;2.85;1.60;;;8.90;99.90;;;;;;5009739;28;20463;-46
2023/12/31 10:22:37;;;;;;;2.17;1.40;;;9.00;99.90;;;;;;5005108;28;20218;-46
2023/12/31 10:25:15;;;;;;;2.40;1.63;;;9.00;99.90;;;;;;5010101;28;20452;-45
2023/12/31 10:27:47;;;;;;;2.10;1.40;;;8.90;99.90;;;;;;5006514;28;20472;-45
2023/12/31 10:30:17;;;;;;;2.30;1.73;;;9.00;99.90;;;;;;5024105;28;20551;-47
2023/12/31 10:32:45;;;;;;;2.47;1.50;;;8.90;99.90;;;;;;5009937;28;20845;-49
2023/12/31 10:35:20;;;;;;;2.63;1.47;;;8.90;99.90;;;;;;5007096;28;20437;-46
2023/12/31 10:37:48;;;;;;;2.80;1.47;;;8.90;99.90;;;;;;5007636;28;20472;-45
2023/12/31 10:40:18;;;;;;;2.20;1.60;;;9.00;99.90;;;;;;5010085;28;20488;-46
2023/12/31 10:42:50;;;;;;;2.10;1.47;;;8.90;99.90;;;;;;5009674;28;20559;-46
2023/12/31 10:45:20;;;;;;;2.77;1.73;;;8.90;99.90;;;;;;5007559;28;20946;-45
2023/12/31 10:47:51;;;;;;;2.30;1.53;;;8.90;99.90;;;;;;5009353;28;20476;-45
2023/12/31 10:50:24;;;;;;;2.40;1.60;;;8.90;99.90;;;;;;5009966;28;20429;-46
2023/12/31 10:52:56;;;;;;;1.73;1.20;;;8.90;99.90;;;;;;5022234;28;21073;-45
2023/12/31 10:55:25;;;;;;;1.73;1.57;;;8.90;99.90;;;;;;5010043;28;20433;-45
2023/12/31 10:57:54;;;;;;;2.17;1.03;;;8.90;99.90;;;;;;5007464;28;21041;-46
2023/12/31 11:00:23;;;;;;;2.07;1.30;;;8.90;99.90;;;;;;5007873;28;20564;-47
2023/12/31 11:02:53;;;;;;;2.30;1.13;;;9.00;99.90;;;;;;5009055;28;20519;-46
2023/12/31 11:05:24;;;;;;;2.63;1.60;;;8.90;99.90;;;;;;5009292;28;20942;-47
2023/12/31 11:07:55;;;;;;;1.60;1.20;;;8.90;99.90;;;;;;5003634;28;20470;-47
2023/12/31 11:10:23;;;;;;;2.40;1.00;;;8.90;99.90;;;;;;5009442;28;20467;-46
2023/12/31 11:12:52;;;;;;;2.03;1.20;;;8.90;99.90;;;;;;5006136;28;20469;-46
2023/12/31 11:15:22;;;;;;;2.23;1.27;;;8.90;99.90;;;;;;5005869;28;20434;-48
2023/12/31 11:18:05;;;;;;;2.40;1.40;;;8.90;99.90;;;;;;5007925;28;21064;-47
2023/12/31 11:20:59;;;;;;;1.83;1.10;;;8.90;99.90;;;;;;5009312;28;20993;-47
2023/12/31 11:23:37;;;;;;;1.60;1.30;;;8.90;99.90;;;;;;5003034;28;20464;-45
2023/12/31 11:26:07;;;;;;;1.80;1.13;;;8.90;99.90;;;;;;5007705;28;20516;-47
2023/12/31 11:28:35;;;;;;;2.30;1.13;;;8.90;99.90;;;;;;5006662;28;20861;-47
2023/12/31 11:31:10;;;;;;;2.00;1.50;;;8.90;99.90;;;;;;5023394;28;20482;-47
2023/12/31 11:33:40;;;;;;;1.43;1.10;;;8.90;99.90;;;;;;5015928;28;20432;-49
2023/12/31 11:36:14;;;;;;;1.87;1.10;;;8.90;99.90;;;;;;5008400;28;20527;-50
2023/12/31 11:38:54;;;;;;;1.97;1.23;;;8.90;99.90;;;;;;5018440;28;20536;-46
2023/12/31 11:41:23;;;;;;;1.70;1.00;;;8.90;99.90;;;;;;5007448;28;20838;-46
2023/12/31 11:43:52;;;;;;;1.97;1.20;;;8.90;99.90;;;;;;5020122;28;20483;-46
2023/12/31 11:46:38;;;;;;;1.70;1.10;;;8.90;99.90;;;;;;5008515;28;20555;-45
2023/12/31 11:49:06;;;;;;;2.80;1.07;;;8.90;99.90;;;;;;5008839;28;20448;-47
2023/12/31 11:52:01;;;;;;;1.77;1.00;;;8.90;99.90;;;;;;5008557;28;20549;-48
2023/12/31 11:54:36;;;;;;;1.60;0.93;;;8.90;99.90;;;;;;5001315;28;20488;-48
2023/12/31 11:57:06;;;;;;;1.70;0.90;;;8.90;99.90;;;;;;5006847;28;21062;-47
2023/12/31 11:59:35;;;;;;;2.73;1.17;;;8.90;99.90;;;;;;5005104;28;20460;-45
2023/12/31 12:02:05;;;;;;;1.77;0.90;;;8.90;99.90;;;;;;5008516;28;20475;-45
2023/12/31 12:04:34;;;;;;;2.10;0.90;;;8.90;99.90;;;;;;5007391;28;20421;-46
2023/12/31 12:07:04;;;;;;;1.90;1.13;;;8.90;99.90;;;;;;5006695;28;20476;-45
2023/12/31 12:09:34;;;;;;;1.90;1.30;;;8.90;99.90;;;;;;5009967;28;20523;-44
2023/12/31 12:12:04;;;;;;;1.60;0.87;;;8.90;99.90;;;;;;5007709;28;21048;-46
2023/12/31 12:14:32;;;;;;;2.33;1.20;;;8.90;99.90;;;;;;5004561;28;20452;-45
2023/12/31 12:17:02;;;;;;;3.30;1.10;;;8.90;99.90;;;;;;5008141;28;20475;-46
2023/12/31 12:19:34;;;;;;;1.50;0.90;;;8.90;99.90;;;;;;5011684;28;20827;-46
2023/12/31 12:22:06;;;;;;;2.23;1.10;;;8.90;99.90;;;;;;5004103;28;20531;-46
2023/12/31 12:24:34;;;;;;;3.40;1.20;;;8.90;99.90;;;;;;5008597;28;20422;-45
2023/12/31 12:27:04;;;;;;;1.67;1.03;;;8.90;99.90;;;;;;5006631;28;20563;-45
2023/12/31 12:29:36;;;;;;;2.37;1.00;;;8.90;99.90;;;;;;5004639;28;21048;-45
2023/12/31 12:32:06;;;;;;;1.73;0.97;;;8.90;99.90;;;;;;5007827;28;20468;-45
2023/12/31 12:34:37;;;;;;;1.93;0.90;;;9.00;99.90;;;;;;5004209;28;20437;-48
2023/12/31 12:37:07;;;;;;;2.00;0.87;;;8.90;99.90;;;;;;5008837;28;20502;-45
2023/12/31 12:39:35;;;;;;;2.00;1.33;;;9.00;99.90;;;;;;5007702;28;20448;-46
2023/12/31 12:42:05;;;;;;;1.97;0.90;;;9.00;99.90;;;;;;5012100;28;20559;-45
2023/12/31 12:44:35;;;;;;;2.07;1.00;;;9.00;99.90;;;;;;5009023;28;20531;-45
2023/12/31 12:47:04;;;;;;;1.70;0.97;;;8.90;99.90;;;;;;5011626;28;20994;-46
2023/12/31 12:49:32;;;;;;;1.57;0.77;;;9.00;99.90;;;;;;5012493;28;20456;-45
2023/12/31 12:52:00;;;;;;;2.00;1.00;;;8.90;99.90;;;;;;5007413;28;20474;-46
2023/12/31 12:54:30;;;;;;;1.40;0.97;;;9.00;99.90;;;;;;5012104;28;20440;-45
2023/12/31 12:57:00;;;;;;;1.70;1.10;;;9.00;99.90;;;;;;5011547;28;20452;-46
2023/12/31 12:59:28;;;;;;;3.20;1.03;;;9.00;99.90;;;;;;5008839;28;20516;-46
2023/12/31 13:01:57;;;;;;;1.83;1.03;;;9.00;99.90;;;;;;5011501;28;20481;-48
2023/12/31 13:04:25;;;;;;;1.70;0.80;;;9.00;99.90;;;;;;5012230;28;20432;-47
2023/12/31 13:06:57;;;;;;;2.00;0.87;;;9.00;99.90;;;;;;5008046;28;20485;-47
2023/12/31 13:09:26;;;;;;;2.13;0.73;;;9.00;99.90;;;;;;5011387;28;20479;-48